Omaha, Nebraska
Current Conditions -  °F | °C
As of 4:52 PM on Saturday 22 Nov 2014 (Local Time) from KOMA Reporting Station
Broken Clouds Broken Clouds  
Wind Chill: 12°   Ceiling: 2000
Heat Index: 12°   Visibility: 10mi
Dew Point:   Wind: 14mph
Humidity: 80%   Direction: 170°S
Pressure: 29.64"   Gusts: NA
Location:  41.26°N, 95.94°W
Report Text: KOMA 222252Z 17012KT 10SM BKN020 12/09 A2964 RMK AO2 SLP039 T01220089
Loading
Personal Weather Stations






























Interactive Weather Map New forecast layout! Learn more

10-Day Weather Forecast

Advertisements
Track Severe Weather on mobile